sensor_id;sensor_type;location;lat;lon;timestamp;pressure;altitude;pressure_sealevel;temperature;humidity
66430;BME280;53242;51.694;10.006;2023-01-27T00:00:11;100124.00;;;1.21;90.70
66430;BME280;53242;51.694;10.006;2023-01-27T00:02:38;100126.00;;;1.18;91.00
66430;BME280;53242;51.694;10.006;2023-01-27T00:05:01;100128.94;;;1.36;90.85
66430;BME280;53242;51.694;10.006;2023-01-27T00:07:23;100132.94;;;1.28;90.49
66430;BME280;53242;51.694;10.006;2023-01-27T00:09:45;100127.75;;;1.06;91.32
66430;BME280;53242;51.694;10.006;2023-01-27T00:12:17;100127.75;;;1.17;91.33
66430;BME280;53242;51.694;10.006;2023-01-27T00:14:59;100126.00;;;1.18;91.51
66430;BME280;53242;51.694;10.006;2023-01-27T00:17:21;100120.19;;;1.03;91.68
66430;BME280;53242;51.694;10.006;2023-01-27T00:19:43;100123.28;;;1.19;91.17
66430;BME280;53242;51.694;10.006;2023-01-27T00:22:08;100127.19;;;1.13;91.63
66430;BME280;53242;51.694;10.006;2023-01-27T00:24:49;100124.44;;;1.15;91.52
66430;BME280;53242;51.694;10.006;2023-01-27T00:27:11;100119.34;;;1.25;91.43
66430;BME280;53242;51.694;10.006;2023-01-27T00:29:35;100116.88;;;1.23;91.35
66430;BME280;53242;51.694;10.006;2023-01-27T00:31:58;100121.13;;;1.13;90.99
66430;BME280;53242;51.694;10.006;2023-01-27T00:34:38;100125.16;;;1.17;91.16
66430;BME280;53242;51.694;10.006;2023-01-27T00:37:02;100119.25;;;1.15;91.47
66430;BME280;53242;51.694;10.006;2023-01-27T00:39:25;100127.53;;;1.20;91.53
66430;BME280;53242;51.694;10.006;2023-01-27T00:41:47;100119.13;;;1.17;91.40
66430;BME280;53242;51.694;10.006;2023-01-27T00:44:09;100124.34;;;1.17;91.45
66430;BME280;53242;51.694;10.006;2023-01-27T00:46:35;100113.81;;;1.18;91.53
66430;BME280;53242;51.694;10.006;2023-01-27T00:48:57;100112.63;;;1.22;91.09
66430;BME280;53242;51.694;10.006;2023-01-27T00:51:20;100111.00;;;1.21;91.59
66430;BME280;53242;51.694;10.006;2023-01-27T00:53:42;100111.47;;;1.26;91.74
66430;BME280;53242;51.694;10.006;2023-01-27T00:56:05;100106.00;;;1.41;91.14
66430;BME280;53242;51.694;10.006;2023-01-27T00:58:28;100109.56;;;1.28;91.04
66430;BME280;53242;51.694;10.006;2023-01-27T01:00:57;100108.47;;;1.31;91.50
66430;BME280;53242;51.694;10.006;2023-01-27T01:03:21;100115.94;;;1.36;91.13
66430;BME280;53242;51.694;10.006;2023-01-27T01:05:43;100113.94;;;1.39;90.86
66430;BME280;53242;51.694;10.006;2023-01-27T01:08:06;100109.41;;;1.41;90.82
66430;BME280;53242;51.694;10.006;2023-01-27T01:10:28;100108.72;;;1.39;91.30
66430;BME280;53242;51.694;10.006;2023-01-27T01:12:51;100110.97;;;1.44;90.84
66430;BME280;53242;51.694;10.006;2023-01-27T01:15:14;100113.47;;;1.34;90.67
66430;BME280;53242;51.694;10.006;2023-01-27T01:17:36;100113.81;;;1.41;90.63
66430;BME280;53242;51.694;10.006;2023-01-27T01:19:59;100116.75;;;1.36;90.71
66430;BME280;53242;51.694;10.006;2023-01-27T01:22:21;100115.59;;;1.29;91.14
66430;BME280;53242;51.694;10.006;2023-01-27T01:24:44;100116.53;;;1.28;91.24
66430;BME280;53242;51.694;10.006;2023-01-27T01:27:08;100125.16;;;1.28;91.18
66430;BME280;53242;51.694;10.006;2023-01-27T01:29:31;100130.34;;;1.28;91.39
66430;BME280;53242;51.694;10.006;2023-01-27T01:31:55;100130.13;;;1.31;91.08
66430;BME280;53242;51.694;10.006;2023-01-27T01:34:17;100135.44;;;1.30;90.99
66430;BME280;53242;51.694;10.006;2023-01-27T01:36:39;100129.28;;;1.42;91.12
66430;BME280;53242;51.694;10.006;2023-01-27T01:39:02;100132.13;;;1.39;91.03
66430;BME280;53242;51.694;10.006;2023-01-27T01:41:25;100128.00;;;1.37;91.20
66430;BME280;53242;51.694;10.006;2023-01-27T01:43:49;100131.53;;;1.24;91.23
66430;BME280;53242;51.694;10.006;2023-01-27T01:46:12;100133.31;;;1.24;91.80
66430;BME280;53242;51.694;10.006;2023-01-27T01:56:26;100146.19;;;1.14;92.49
66430;BME280;53242;51.694;10.006;2023-01-27T01:58:50;100141.47;;;1.19;92.18
66430;BME280;53242;51.694;10.006;2023-01-27T02:01:15;100138.06;;;1.19;91.92
66430;BME280;53242;51.694;10.006;2023-01-27T02:03:40;100140.41;;;1.22;92.18
66430;BME280;53242;51.694;10.006;2023-01-27T02:06:04;100144.06;;;1.19;92.14
66430;BME280;53242;51.694;10.006;2023-01-27T02:08:30;100139.81;;;1.29;92.06
66430;BME280;53242;51.694;10.006;2023-01-27T02:10:55;100142.88;;;1.23;92.33
66430;BME280;53242;51.694;10.006;2023-01-27T02:13:17;100146.91;;;1.27;92.35
66430;BME280;53242;51.694;10.006;2023-01-27T02:15:40;100143.81;;;1.22;92.43
66430;BME280;53242;51.694;10.006;2023-01-27T02:18:03;100135.69;;;1.27;92.52
66430;BME280;53242;51.694;10.006;2023-01-27T02:28:07;100146.91;;;1.27;92.56
66430;BME280;53242;51.694;10.006;2023-01-27T02:30:29;100142.88;;;1.23;92.56
66430;BME280;53242;51.694;10.006;2023-01-27T02:32:52;100137.69;;;1.23;92.86
66430;BME280;53242;51.694;10.006;2023-01-27T02:35:19;100144.19;;;1.29;92.89
66430;BME280;53242;51.694;10.006;2023-01-27T02:37:44;100135.94;;;1.24;92.91
66430;BME280;53242;51.694;10.006;2023-01-27T02:40:09;100143.47;;;1.27;93.14
66430;BME280;53242;51.694;10.006;2023-01-27T02:42:31;100142.28;;;1.31;92.51
66430;BME280;53242;51.694;10.006;2023-01-27T02:44:54;100142.16;;;1.33;92.69
66430;BME280;53242;51.694;10.006;2023-01-27T02:47:17;100143.00;;;1.22;93.24
66430;BME280;53242;51.694;10.006;2023-01-27T02:49:39;100139.22;;;1.26;93.22
66430;BME280;53242;51.694;10.006;2023-01-27T02:52:04;100142.06;;;1.23;93.41
66430;BME280;53242;51.694;10.006;2023-01-27T02:54:28;100145.72;;;1.20;93.50
66430;BME280;53242;51.694;10.006;2023-01-27T02:56:51;100150.34;;;1.28;93.05
66430;BME280;53242;51.694;10.006;2023-01-27T02:59:13;100152.56;;;1.33;93.04
66430;BME280;53242;51.694;10.006;2023-01-27T03:01:37;100156.63;;;1.37;93.00
66430;BME280;53242;51.694;10.006;2023-01-27T03:03:59;100159.22;;;1.37;93.07
66430;BME280;53242;51.694;10.006;2023-01-27T03:06:23;100159.91;;;1.39;92.75
66430;BME280;53242;51.694;10.006;2023-01-27T03:08:46;100162.41;;;1.29;93.10
66430;BME280;53242;51.694;10.006;2023-01-27T03:11:10;100158.25;;;1.26;93.60
66430;BME280;53242;51.694;10.006;2023-01-27T03:13:34;100155.41;;;1.29;93.32
66430;BME280;53242;51.694;10.006;2023-01-27T03:15:59;100168.16;;;1.33;93.04
66430;BME280;53242;51.694;10.006;2023-01-27T03:18:40;100171.50;;;1.35;93.37
66430;BME280;53242;51.694;10.006;2023-01-27T03:21:08;100166.53;;;1.31;93.40
66430;BME280;53242;51.694;10.006;2023-01-27T03:23:31;100173.38;;;1.33;93.22
66430;BME280;53242;51.694;10.006;2023-01-27T03:25:57;100167.38;;;1.43;92.75
66430;BME280;53242;51.694;10.006;2023-01-27T03:28:20;100175.03;;;1.34;93.11
66430;BME280;53242;51.694;10.006;2023-01-27T03:31:02;100180.84;;;1.37;93.38
66430;BME280;53242;51.694;10.006;2023-01-27T03:33:35;100181.19;;;1.33;93.38
66430;BME280;53242;51.694;10.006;2023-01-27T03:36:06;100182.25;;;1.30;93.68
66430;BME280;53242;51.694;10.006;2023-01-27T03:38:48;100177.88;;;1.42;93.23
66430;BME280;53242;51.694;10.006;2023-01-27T03:41:29;100186.63;;;1.41;93.42
66430;BME280;53242;51.694;10.006;2023-01-27T03:44:10;100188.28;;;1.53;93.37
66430;BME280;53242;51.694;10.006;2023-01-27T03:46:51;100184.72;;;1.54;93.11
66430;BME280;53242;51.694;10.006;2023-01-27T03:49:13;100186.25;;;1.57;93.13
66430;BME280;53242;51.694;10.006;2023-01-27T03:51:36;100183.31;;;1.50;92.88
66430;BME280;53242;51.694;10.006;2023-01-27T03:53:58;100186.16;;;1.47;93.40
66430;BME280;53242;51.694;10.006;2023-01-27T03:56:22;100187.94;;;1.58;93.28
66430;BME280;53242;51.694;10.006;2023-01-27T03:58:44;100187.78;;;1.48;93.01
66430;BME280;53242;51.694;10.006;2023-01-27T04:01:13;100177.66;;;1.56;93.16
66430;BME280;53242;51.694;10.006;2023-01-27T04:03:36;100181.06;;;1.57;93.34
66430;BME280;53242;51.694;10.006;2023-01-27T04:06:20;100178.59;;;1.67;93.13
66430;BME280;53242;51.694;10.006;2023-01-27T04:09:02;100181.53;;;1.62;92.91
66430;BME280;53242;51.694;10.006;2023-01-27T04:11:25;100182.34;;;1.74;92.97
66430;BME280;53242;51.694;10.006;2023-01-27T04:14:07;100184.59;;;1.78;92.78
66430;BME280;53242;51.694;10.006;2023-01-27T04:16:30;100180.81;;;1.71;92.84
66430;BME280;53242;51.694;10.006;2023-01-27T04:18:53;100185.91;;;1.73;92.72
66430;BME280;53242;51.694;10.006;2023-01-27T04:21:16;100179.41;;;1.67;92.83
66430;BME280;53242;51.694;10.006;2023-01-27T04:23:38;100185.66;;;1.76;92.56
66430;BME280;53242;51.694;10.006;2023-01-27T04:26:01;100183.31;;;1.73;92.47
66430;BME280;53242;51.694;10.006;2023-01-27T04:28:23;100183.53;;;1.70;92.46
66430;BME280;53242;51.694;10.006;2023-01-27T04:30:45;100180.59;;;1.63;92.80
66430;BME280;53242;51.694;10.006;2023-01-27T04:33:08;100184.94;;;1.74;92.59
66430;BME280;53242;51.694;10.006;2023-01-27T04:35:31;100187.06;;;1.80;92.70
66430;BME280;53242;51.694;10.006;2023-01-27T04:37:53;100185.31;;;1.69;92.68
66430;BME280;53242;51.694;10.006;2023-01-27T04:40:16;100183.41;;;1.71;92.50
66430;BME280;53242;51.694;10.006;2023-01-27T04:42:39;100192.53;;;1.77;92.63
66430;BME280;53242;51.694;10.006;2023-01-27T04:45:01;100192.66;;;1.75;92.19
66430;BME280;53242;51.694;10.006;2023-01-27T04:47:24;100197.38;;;1.70;92.37
66430;BME280;53242;51.694;10.006;2023-01-27T04:49:46;100192.75;;;1.74;92.65
66430;BME280;53242;51.694;10.006;2023-01-27T04:52:08;100198.94;;;1.61;92.52
66430;BME280;53242;51.694;10.006;2023-01-27T04:54:31;100193.81;;;1.71;92.35
66430;BME280;53242;51.694;10.006;2023-01-27T04:57:00;100191.13;;;1.73;92.64
66430;BME280;53242;51.694;10.006;2023-01-27T04:59:24;100196.31;;;1.73;92.70
66430;BME280;53242;51.694;10.006;2023-01-27T05:01:47;100193.00;;;1.71;92.60
66430;BME280;53242;51.694;10.006;2023-01-27T05:04:09;100194.78;;;1.70;92.37
66430;BME280;53242;51.694;10.006;2023-01-27T05:06:32;100198.56;;;1.77;92.50
66430;BME280;53242;51.694;10.006;2023-01-27T05:08:54;100200.22;;;1.67;92.56
66430;BME280;53242;51.694;10.006;2023-01-27T05:11:17;100205.66;;;1.75;92.48
66430;BME280;53242;51.694;10.006;2023-01-27T05:13:40;100202.09;;;1.76;92.37
66430;BME280;53242;51.694;10.006;2023-01-27T05:16:15;100212.16;;;1.70;92.59
66430;BME280;53242;51.694;10.006;2023-01-27T05:18:39;100215.22;;;1.75;92.24
66430;BME280;53242;51.694;10.006;2023-01-27T05:21:03;100212.41;;;1.67;92.72
66430;BME280;53242;51.694;10.006;2023-01-27T05:23:26;100214.88;;;1.68;92.42
66430;BME280;53242;51.694;10.006;2023-01-27T05:26:03;100219.28;;;1.68;92.78
66430;BME280;53242;51.694;10.006;2023-01-27T05:28:26;100221.41;;;1.62;92.75
66430;BME280;53242;51.694;10.006;2023-01-27T05:30:48;100216.41;;;1.59;92.93
66430;BME280;53242;51.694;10.006;2023-01-27T05:33:11;100219.50;;;1.64;92.97
66430;BME280;53242;51.694;10.006;2023-01-27T05:35:33;100214.06;;;1.68;92.91
66430;BME280;53242;51.694;10.006;2023-01-27T05:37:56;100224.34;;;1.69;92.92
66430;BME280;53242;51.694;10.006;2023-01-27T05:40:18;100236.53;;;1.69;92.83
66430;BME280;53242;51.694;10.006;2023-01-27T05:42:41;100229.91;;;1.64;93.02
66430;BME280;53242;51.694;10.006;2023-01-27T05:45:03;100233.44;;;1.63;93.17
66430;BME280;53242;51.694;10.006;2023-01-27T05:47:26;100237.59;;;1.66;92.78
66430;BME280;53242;51.694;10.006;2023-01-27T05:49:48;100235.94;;;1.65;93.22
66430;BME280;53242;51.694;10.006;2023-01-27T05:52:11;100241.97;;;1.66;93.17
66430;BME280;53242;51.694;10.006;2023-01-27T05:54:33;100244.22;;;1.70;92.61
66430;BME280;53242;51.694;10.006;2023-01-27T05:56:55;100243.38;;;1.70;93.10
66430;BME280;53242;51.694;10.006;2023-01-27T05:59:18;100246.72;;;1.72;92.68
66430;BME280;53242;51.694;10.006;2023-01-27T06:01:40;100253.94;;;1.79;92.69
66430;BME280;53242;51.694;10.006;2023-01-27T06:04:03;100250.72;;;1.76;92.69
66430;BME280;53242;51.694;10.006;2023-01-27T06:06:28;100254.28;;;1.86;92.38
66430;BME280;53242;51.694;10.006;2023-01-27T06:08:51;100252.50;;;1.75;92.28
66430;BME280;53242;51.694;10.006;2023-01-27T06:11:14;100260.19;;;1.88;92.50
66430;BME280;53242;51.694;10.006;2023-01-27T06:13:37;100261.25;;;1.86;92.04
66430;BME280;53242;51.694;10.006;2023-01-27T06:16:04;100256.53;;;1.91;91.97
66430;BME280;53242;51.694;10.006;2023-01-27T06:18:28;100261.00;;;1.77;92.12
66430;BME280;53242;51.694;10.006;2023-01-27T06:20:51;100256.19;;;1.73;92.19
66430;BME280;53242;51.694;10.006;2023-01-27T06:23:15;100254.16;;;1.76;92.06
66430;BME280;53242;51.694;10.006;2023-01-27T06:25:40;100254.75;;;1.80;91.93
66430;BME280;53242;51.694;10.006;2023-01-27T06:28:02;100261.72;;;1.79;92.12
66430;BME280;53242;51.694;10.006;2023-01-27T06:30:25;100259.00;;;1.81;91.97
66430;BME280;53242;51.694;10.006;2023-01-27T06:32:47;100265.41;;;1.88;91.93
66430;BME280;53242;51.694;10.006;2023-01-27T06:35:09;100265.28;;;1.90;91.74
66430;BME280;53242;51.694;10.006;2023-01-27T06:37:32;100268.47;;;1.93;91.32
66430;BME280;53242;51.694;10.006;2023-01-27T06:39:54;100279.13;;;1.90;91.59
66430;BME280;53242;51.694;10.006;2023-01-27T06:42:18;100269.16;;;1.95;91.10
66430;BME280;53242;51.694;10.006;2023-01-27T06:44:40;100281.72;;;1.90;91.53
66430;BME280;53242;51.694;10.006;2023-01-27T06:47:02;100287.19;;;1.99;91.26
66430;BME280;53242;51.694;10.006;2023-01-27T06:49:25;100292.38;;;1.87;91.58
66430;BME280;53242;51.694;10.006;2023-01-27T06:51:47;100295.19;;;1.95;91.20
66430;BME280;53242;51.694;10.006;2023-01-27T06:54:10;100299.59;;;1.95;90.93
66430;BME280;53242;51.694;10.006;2023-01-27T06:56:32;100293.31;;;1.97;90.82
66430;BME280;53242;51.694;10.006;2023-01-27T06:58:54;100298.16;;;2.02;91.22
66430;BME280;53242;51.694;10.006;2023-01-27T07:01:17;100302.66;;;2.00;91.11
66430;BME280;53242;51.694;10.006;2023-01-27T07:03:39;100301.47;;;2.04;90.91
66430;BME280;53242;51.694;10.006;2023-01-27T07:06:02;100302.28;;;2.05;90.45
66430;BME280;53242;51.694;10.006;2023-01-27T07:08:24;100298.88;;;2.16;90.20
66430;BME280;53242;51.694;10.006;2023-01-27T07:10:46;100305.16;;;2.13;90.06
66430;BME280;53242;51.694;10.006;2023-01-27T07:13:11;100314.75;;;2.01;90.32
66430;BME280;53242;51.694;10.006;2023-01-27T07:15:33;100308.69;;;2.01;90.81
66430;BME280;53242;51.694;10.006;2023-01-27T07:17:57;100310.09;;;2.05;90.59
66430;BME280;53242;51.694;10.006;2023-01-27T07:20:20;100308.81;;;2.22;90.06
66430;BME280;53242;51.694;10.006;2023-01-27T07:22:42;100312.25;;;2.11;89.89
66430;BME280;53242;51.694;10.006;2023-01-27T07:25:05;100323.84;;;2.29;89.82
66430;BME280;53242;51.694;10.006;2023-01-27T07:27:28;100327.13;;;2.32;89.46
66430;BME280;53242;51.694;10.006;2023-01-27T07:29:50;100324.44;;;2.22;89.66
66430;BME280;53242;51.694;10.006;2023-01-27T07:32:13;100333.06;;;2.22;89.77
66430;BME280;53242;51.694;10.006;2023-01-27T07:34:35;100326.19;;;2.10;90.17
66430;BME280;53242;51.694;10.006;2023-01-27T07:36:58;100331.75;;;2.28;89.78
66430;BME280;53242;51.694;10.006;2023-01-27T07:39:20;100330.22;;;2.25;89.96
66430;BME280;53242;51.694;10.006;2023-01-27T07:41:43;100337.69;;;2.41;89.74
66430;BME280;53242;51.694;10.006;2023-01-27T07:44:10;100332.13;;;2.35;89.50
66430;BME280;53242;51.694;10.006;2023-01-27T07:46:32;100335.56;;;2.24;89.63
66430;BME280;53242;51.694;10.006;2023-01-27T07:48:55;100339.22;;;2.33;89.74
66430;BME280;53242;51.694;10.006;2023-01-27T07:51:17;100345.97;;;2.35;89.63
66430;BME280;53242;51.694;10.006;2023-01-27T07:53:40;100342.75;;;2.43;89.39
66430;BME280;53242;51.694;10.006;2023-01-27T07:56:03;100339.56;;;2.39;89.55
66430;BME280;53242;51.694;10.006;2023-01-27T07:58:25;100338.38;;;2.43;89.23
66430;BME280;53242;51.694;10.006;2023-01-27T08:00:48;100341.56;;;2.36;89.48
66430;BME280;53242;51.694;10.006;2023-01-27T08:03:22;100347.97;;;2.54;89.17
66430;BME280;53242;51.694;10.006;2023-01-27T08:05:45;100344.91;;;2.38;89.23
66430;BME280;53242;51.694;10.006;2023-01-27T08:08:08;100335.28;;;2.50;89.08
66430;BME280;53242;51.694;10.006;2023-01-27T08:10:30;100344.03;;;2.49;89.10
66430;BME280;53242;51.694;10.006;2023-01-27T08:12:53;100337.28;;;2.46;89.06
66430;BME280;53242;51.694;10.006;2023-01-27T08:15:15;100339.28;;;2.54;89.00
66430;BME280;53242;51.694;10.006;2023-01-27T08:17:38;100334.81;;;2.44;89.13
66430;BME280;53242;51.694;10.006;2023-01-27T08:20:00;100344.41;;;2.44;88.93
66430;BME280;53242;51.694;10.006;2023-01-27T08:22:23;100341.34;;;2.39;89.30
66430;BME280;53242;51.694;10.006;2023-01-27T08:24:46;100346.09;;;2.45;89.03
66430;BME280;53242;51.694;10.006;2023-01-27T08:27:08;100344.16;;;2.58;88.88
66430;BME280;53242;51.694;10.006;2023-01-27T08:29:31;100347.19;;;2.75;88.73
66430;BME280;53242;51.694;10.006;2023-01-27T08:31:54;100353.38;;;2.62;88.79
66430;BME280;53242;51.694;10.006;2023-01-27T08:34:16;100354.56;;;2.58;88.85
66430;BME280;53242;51.694;10.006;2023-01-27T08:36:40;100353.63;;;2.71;88.38
66430;BME280;53242;51.694;10.006;2023-01-27T08:39:03;100364.03;;;2.82;88.27
66430;BME280;53242;51.694;10.006;2023-01-27T08:41:26;100367.94;;;2.76;88.31
66430;BME280;53242;51.694;10.006;2023-01-27T08:43:49;100369.16;;;2.38;89.06
66430;BME280;53242;51.694;10.006;2023-01-27T08:46:11;100360.28;;;2.41;89.25
66430;BME280;53242;51.694;10.006;2023-01-27T08:48:35;100369.06;;;2.40;89.35
66430;BME280;53242;51.694;10.006;2023-01-27T08:50:58;100368.81;;;2.43;89.17
66430;BME280;53242;51.694;10.006;2023-01-27T08:53:22;100376.97;;;2.50;88.99
66430;BME280;53242;51.694;10.006;2023-01-27T08:55:44;100382.56;;;2.45;89.26
66430;BME280;53242;51.694;10.006;2023-01-27T08:58:07;100375.44;;;2.58;88.96
66430;BME280;53242;51.694;10.006;2023-01-27T09:00:29;100375.69;;;2.55;89.13
66430;BME280;53242;51.694;10.006;2023-01-27T09:02:52;100378.63;;;2.62;88.95
66430;BME280;53242;51.694;10.006;2023-01-27T09:05:14;100377.69;;;2.63;88.88
66430;BME280;53242;51.694;10.006;2023-01-27T09:07:39;100381.09;;;2.63;89.16
66430;BME280;53242;51.694;10.006;2023-01-27T09:10:02;100386.44;;;2.62;89.30
66430;BME280;53242;51.694;10.006;2023-01-27T09:12:25;100387.97;;;2.76;89.03
66430;BME280;53242;51.694;10.006;2023-01-27T09:14:47;100383.72;;;2.63;89.35
66430;BME280;53242;51.694;10.006;2023-01-27T09:17:10;100391.66;;;2.62;89.71
66430;BME280;53242;51.694;10.006;2023-01-27T09:19:32;100389.78;;;2.64;89.91
66430;BME280;53242;51.694;10.006;2023-01-27T09:21:55;100388.56;;;2.68;89.99
66430;BME280;53242;51.694;10.006;2023-01-27T09:24:17;100387.38;;;2.72;89.99
66430;BME280;53242;51.694;10.006;2023-01-27T09:26:40;100391.16;;;2.79;89.93
66430;BME280;53242;51.694;10.006;2023-01-27T09:29:02;100397.19;;;2.91;89.64
66430;BME280;53242;51.694;10.006;2023-01-27T09:31:25;100391.13;;;2.91;89.67
66430;BME280;53242;51.694;10.006;2023-01-27T09:33:47;100404.75;;;2.94;89.64
66430;BME280;53242;51.694;10.006;2023-01-27T09:36:12;100406.19;;;2.87;89.66
66430;BME280;53242;51.694;10.006;2023-01-27T09:38:50;100405.19;;;3.00;89.74
66430;BME280;53242;51.694;10.006;2023-01-27T09:41:44;100411.75;;;2.83;90.34
66430;BME280;53242;51.694;10.006;2023-01-27T09:57:57;100412.25;;;3.20;89.00
66430;BME280;53242;51.694;10.006;2023-01-27T10:14:18;100408.28;;;3.05;88.36
66430;BME280;53242;51.694;10.006;2023-01-27T10:17:00;100411.34;;;3.10;88.56
66430;BME280;53242;51.694;10.006;2023-01-27T10:19:31;100411.13;;;3.13;88.40
66430;BME280;53242;51.694;10.006;2023-01-27T10:25:24;100403.91;;;3.38;87.63
66430;BME280;53242;51.694;10.006;2023-01-27T10:27:55;100408.63;;;3.44;87.23
66430;BME280;53242;51.694;10.006;2023-01-27T10:33:06;100405.47;;;3.50;87.32
66430;BME280;53242;51.694;10.006;2023-01-27T10:41:03;100404.88;;;3.79;86.79
66430;BME280;53242;51.694;10.006;2023-01-27T10:46:49;100417.72;;;3.71;86.93
66430;BME280;53242;51.694;10.006;2023-01-27T10:49:24;100416.81;;;3.60;87.27
66430;BME280;53242;51.694;10.006;2023-01-27T10:51:53;100410.53;;;3.84;86.60
66430;BME280;53242;51.694;10.006;2023-01-27T10:56:49;100409.53;;;3.54;87.20
66430;BME280;53242;51.694;10.006;2023-01-27T10:59:19;100409.72;;;3.62;86.83
66430;BME280;53242;51.694;10.006;2023-01-27T11:01:48;100406.38;;;3.60;87.18
66430;BME280;53242;51.694;10.006;2023-01-27T11:04:16;100403.59;;;3.52;86.97
66430;BME280;53242;51.694;10.006;2023-01-27T11:06:41;100402.78;;;3.73;86.64
66430;BME280;53242;51.694;10.006;2023-01-27T11:09:15;100394.28;;;3.81;86.42
66430;BME280;53242;51.694;10.006;2023-01-27T11:11:38;100401.09;;;3.72;86.83
66430;BME280;53242;51.694;10.006;2023-01-27T11:14:16;100399.22;;;3.74;86.44
66430;BME280;53242;51.694;10.006;2023-01-27T11:16:44;100399.38;;;4.03;85.97
66430;BME280;53242;51.694;10.006;2023-01-27T11:19:17;100396.44;;;3.97;86.26
66430;BME280;53242;51.694;10.006;2023-01-27T11:21:43;100395.56;;;4.07;85.99
66430;BME280;53242;51.694;10.006;2023-01-27T11:24:27;100397.22;;;3.87;86.56
66430;BME280;53242;51.694;10.006;2023-01-27T11:27:24;100394.47;;;3.89;86.62
66430;BME280;53242;51.694;10.006;2023-01-27T11:29:53;100399.22;;;3.74;86.82
66430;BME280;53242;51.694;10.006;2023-01-27T11:35:21;100404.31;;;3.54;87.29
66430;BME280;53242;51.694;10.006;2023-01-27T11:37:46;100405.69;;;3.58;86.78
66430;BME280;53242;51.694;10.006;2023-01-27T11:42:45;100403.66;;;3.62;87.12
66430;BME280;53242;51.694;10.006;2023-01-27T11:45:14;100403.53;;;3.64;86.58
66430;BME280;53242;51.694;10.006;2023-01-27T11:47:38;100410.28;;;3.66;86.64
66430;BME280;53242;51.694;10.006;2023-01-27T11:50:03;100408.56;;;3.76;86.55
66430;BME280;53242;51.694;10.006;2023-01-27T11:52:26;100414.03;;;3.73;86.57
66430;BME280;53242;51.694;10.006;2023-01-27T11:55:00;100414.81;;;3.85;85.83
66430;BME280;53242;51.694;10.006;2023-01-27T11:57:25;100408.06;;;3.83;85.96
66430;BME280;53242;51.694;10.006;2023-01-27T11:59:52;100412.31;;;3.84;85.70
66430;BME280;53242;51.694;10.006;2023-01-27T12:02:35;100401.63;;;3.87;85.80
66430;BME280;53242;51.694;10.006;2023-01-27T12:05:10;100402.25;;;3.79;85.72
66430;BME280;53242;51.694;10.006;2023-01-27T12:07:50;100398.25;;;3.75;85.71
66430;BME280;53242;51.694;10.006;2023-01-27T12:12:51;100401.38;;;3.69;85.47
66430;BME280;53242;51.694;10.006;2023-01-27T12:15:16;100404.34;;;3.64;85.12
66430;BME280;53242;51.694;10.006;2023-01-27T12:17:42;100402.06;;;3.71;85.49
66430;BME280;53242;51.694;10.006;2023-01-27T12:20:26;100409.38;;;3.56;85.29
66430;BME280;53242;51.694;10.006;2023-01-27T12:22:53;100408.53;;;3.55;85.11
66430;BME280;53242;51.694;10.006;2023-01-27T12:25:21;100406.00;;;3.65;85.27
66430;BME280;53242;51.694;10.006;2023-01-27T12:27:48;100405.47;;;3.50;85.63
66430;BME280;53242;51.694;10.006;2023-01-27T12:30:20;100400.84;;;3.54;85.59
66430;BME280;53242;51.694;10.006;2023-01-27T12:32:45;100401.78;;;3.53;85.49
66430;BME280;53242;51.694;10.006;2023-01-27T12:35:20;100401.13;;;3.51;85.77
66430;BME280;53242;51.694;10.006;2023-01-27T12:37:43;100400.72;;;3.55;85.72
66430;BME280;53242;51.694;10.006;2023-01-27T12:40:14;100404.63;;;3.61;85.70
66430;BME280;53242;51.694;10.006;2023-01-27T12:42:42;100386.72;;;3.56;85.61
66430;BME280;53242;51.694;10.006;2023-01-27T12:45:25;100397.78;;;3.49;85.81
66430;BME280;53242;51.694;10.006;2023-01-27T12:50:25;100394.94;;;3.52;85.81
66430;BME280;53242;51.694;10.006;2023-01-27T12:53:13;100385.59;;;3.49;85.31
66430;BME280;53242;51.694;10.006;2023-01-27T12:58:02;100398.22;;;3.33;85.94
66430;BME280;53242;51.694;10.006;2023-01-27T13:00:25;100393.25;;;3.29;85.75
66430;BME280;53242;51.694;10.006;2023-01-27T13:02:47;100391.47;;;3.30;85.40
66430;BME280;53242;51.694;10.006;2023-01-27T13:05:14;100383.59;;;3.41;85.27
66430;BME280;53242;51.694;10.006;2023-01-27T13:07:42;100394.09;;;3.30;85.74
66430;BME280;53242;51.694;10.006;2023-01-27T13:10:15;100398.22;;;3.33;85.72
66430;BME280;53242;51.694;10.006;2023-01-27T13:12:54;100399.44;;;3.28;85.60
66430;BME280;53242;51.694;10.006;2023-01-27T13:15:23;100399.66;;;3.25;85.75
66430;BME280;53242;51.694;10.006;2023-01-27T13:17:48;100395.66;;;3.21;85.72
66430;BME280;53242;51.694;10.006;2023-01-27T13:20:21;100399.31;;;3.30;85.20
66430;BME280;53242;51.694;10.006;2023-01-27T13:22:48;100390.19;;;3.24;85.55
66430;BME280;53242;51.694;10.006;2023-01-27T13:25:16;100389.81;;;3.29;85.25
66430;BME280;53242;51.694;10.006;2023-01-27T13:27:39;100384.41;;;3.21;85.54
66430;BME280;53242;51.694;10.006;2023-01-27T13:30:14;100394.84;;;3.21;85.65
66430;BME280;53242;51.694;10.006;2023-01-27T13:32:39;100396.59;;;3.20;85.79
66430;BME280;53242;51.694;10.006;2023-01-27T13:35:12;100393.25;;;3.29;85.89
66430;BME280;53242;51.694;10.006;2023-01-27T13:37:47;100395.66;;;3.21;86.39
66430;BME280;53242;51.694;10.006;2023-01-27T13:40:26;100397.28;;;3.34;86.26
66430;BME280;53242;51.694;10.006;2023-01-27T13:43:12;100402.09;;;3.38;86.24
66430;BME280;53242;51.694;10.006;2023-01-27T13:45:50;100406.00;;;3.44;85.76
66430;BME280;53242;51.694;10.006;2023-01-27T13:48:36;100405.78;;;3.36;85.73
66430;BME280;53242;51.694;10.006;2023-01-27T13:51:11;100412.25;;;3.20;85.62
66430;BME280;53242;51.694;10.006;2023-01-27T13:53:35;100412.25;;;3.20;85.72
66430;BME280;53242;51.694;10.006;2023-01-27T14:01:23;100421.41;;;3.15;85.63